首页
METAR-TAF:

METAR-TAF

机场 :

通孔廷国际机场

德古斯加巴, 洪都拉斯

纬度: 14-03N, 经度: 087-13W, 海拔: 994米

当前天气观测

该预报发布于36分钟前的18:00 UTC
风速6节,风向东转东北
温度 25°C
湿度 61%
气压 1022 hPa
能见度10公里或以上
多云层高于2800英尺, 塔状积云.

METAR: MHTG 171800Z 06006KT 9999 BKN028TCU 25/17 Q1022 A3018 NOSIG

时间: 12:36 (18:36 UTC)

预报

该预报发布于2小时和11分钟前的16:25 UTC
预报有效从17日的 18点(UTC)到 18日的 18点(UTC)
风速10节,风向东北
能見度: 7000
多云层高于2800英尺, 塔状积云.
散云层高于9000英尺
附近有阵雨
短暂存在
从 17日的 20点(UTC)到 18日的 02点(UTC)
能見度: 6000
少量云层高于2800英尺, 积雨云.
散云层高于3000英尺, 塔状积云.
多云层高于8000英尺
雷暴, 雨
成为
从 18日的 02点(UTC)到 18日的 04点(UTC)
风速4节,风向
能見度: 8000
少量云层高于1000英尺
多云层高于2600英尺
附近有阵雨
成为
从 18日的 05点(UTC)到 18日的 07点(UTC)
风速节,风向
能見度: 7000
少量云层高于700英尺
散云层高于2500英尺
成为
从 18日的 14点(UTC)到 18日的 16点(UTC)
风速8节,风向
能见度10公里或以上
散云层高于2800英尺
散云层高于9000英尺

TAF: MHTG 171625Z 1718/1818 05010KT 7000 VCSH BKN028TCU SCT090 TX27/1720Z TN18/1812Z TEMPO 1720/1802 6000 TSRA FEW028CB SCT030TCU BKN080 BECMG 1802/1804 36004KT 8000 VCSH FEW010 BKN026 BECMG 1805/1807 00000KT 7000 NSW FEW007 SCT025 BECMG 1814/1816 36008KT 9999 SCT028 SCT090

超过4000个机场的气象观测和天气预报(METAR&TAF报告)。

可查询的气象台以黄色和红色小点在地图上表示。

将鼠标移到小点上方,可查看气象台名称。

然后点击查看天气观测和预报。

如需切换地图:点击带黑十字的绿色按钮放大地图;点击带横线的绿色按钮缩小地图;或者点击绿色箭头查看邻近地区的地图。


METAR-TAF: